Rio Novo do Sul, Brazil
Current Conditions -  °F | °C
As of 1:00 PM on Wednesday 22 Oct 2014 (Local Time) from SBVT Reporting Station
Overcast Overcast  
Wind Chill: 77°   Ceiling: 8400
Heat Index: 79°   Visibility: 6mi
Dew Point: 59°   Wind: 15mph
Humidity: 54%   Direction: 200°SSW
Pressure: 30.15"   Gusts: NA
Location:  20.86°S, 40.94°W
Report Text: SBVT 221500Z 20013KT 9999 SCT031 OVC084 25/15 Q1021
Loading
Personal Weather Stations






























Interactive Weather Map
Tropical Storm Tracking
New forecast layout! Learn more

10-Day Weather Forecast

Advertisements
Track Severe Weather on mobile